Bunbury, Australia
Current Conditions -  °F | °C
As of 10:00 AM on Saturday 20 Dec 2014 (Local Time) from YPJT Reporting Station
Clear Clear  
Wind Chill: 79°   Ceiling: Unl
Heat Index: 80°   Visibility: 6mi
Dew Point: 59°   Wind: 17mph
Humidity: 51%   Direction: 230°SW
Pressure: 29.77"   Gusts: NA
Location:  33.33°S, 115.64°E
Report Text: YPJT 200200Z AUTO 23015KT 9999 // NCD 26/15 Q1008
Loading
Personal Weather Stations






























Interactive Weather Map New forecast layout! Learn more

10-Day Weather Forecast

Advertisements
Track Severe Weather on mobile